Time,TemperatureF,DewpointF,PressureIn,WindDirection,WindDirectionDegrees,WindSpeedMPH,WindSpeedGustMPH,Humidity,HourlyPrecipIn,Conditions,Clouds,dailyrainin,SolarRadiationWatts/m^2,SoftwareType,DateUTC
2013-01-04 00:00:00,17.6,10.7,30.00,West,273,1.0,1.0,74,0.00,,,0.00,0,Wunderground v.1.15,2013-01-04 05:00:00,
2013-01-04 00:04:00,17.6,11.0,30.00,West,273,0.0,1.0,75,0.00,,,0.00,0,Wunderground v.1.15,2013-01-04 05:04:00,
2013-01-04 00:05:00,17.5,10.9,30.00,West,273,1.0,1.0,75,0.00,,,0.00,0,Wunderground v.1.15,2013-01-04 05:05:00,
2013-01-04 00:11:00,17.5,10.9,30.00,West,273,0.0,1.0,75,0.00,,,0.00,0,Wunderground v.1.15,2013-01-04 05:11:00,
2013-01-04 00:17:00,17.3,10.7,30.00,West,273,2.0,2.0,75,0.00,,,0.00,0,Wunderground v.1.15,2013-01-04 05:17:00,
2013-01-04 00:24:00,17.1,10.8,29.99,West,273,1.0,2.0,76,0.00,,,0.00,0,Wunderground v.1.15,2013-01-04 05:24:00,
2013-01-04 00:34:00,16.7,10.4,29.99,West,273,1.0,1.0,76,0.00,,,0.00,0,Wunderground v.1.15,2013-01-04 05:34:00,
2013-01-04 00:39:00,16.6,10.6,29.98,West,273,0.0,1.0,77,0.00,,,0.00,0,Wunderground v.1.15,2013-01-04 05:39:00,
2013-01-04 00:47:00,16.4,10.4,29.98,West,273,1.0,1.0,77,0.00,,,0.00,0,Wunderground v.1.15,2013-01-04 05:47:00,
2013-01-04 00:53:00,16.3,10.4,29.98,West,273,1.0,1.0,77,0.00,,,0.00,0,Wunderground v.1.15,2013-01-04 05:53:00,
2013-01-04 01:07:00,16.0,10.3,29.98,West,273,1.0,1.0,78,0.00,,,0.00,0,Wunderground v.1.15,2013-01-04 06:07:00,
2013-01-04 01:15:00,15.9,10.3,29.98,West,273,1.0,1.0,78,0.00,,,0.00,0,Wunderground v.1.15,2013-01-04 06:15:00,
2013-01-04 01:20:00,15.9,10.3,29.98,West,273,1.0,1.0,78,0.00,,,0.00,0,Wunderground v.1.15,2013-01-04 06:20:00,
2013-01-04 01:25:00,15.8,10.4,29.98,West,273,2.0,2.0,79,0.00,,,0.00,0,Wunderground v.1.15,2013-01-04 06:25:00,
2013-01-04 01:30:00,15.9,10.5,29.98,West,273,1.0,2.0,79,0.00,,,0.00,0,Wunderground v.1.15,2013-01-04 06:30:00,
2013-01-04 01:36:00,15.9,10.5,29.98,West,273,1.0,2.0,79,0.00,,,0.00,0,Wunderground v.1.15,2013-01-04 06:36:00,
2013-01-04 01:42:00,15.9,10.5,29.98,West,273,1.0,2.0,79,0.00,,,0.00,0,Wunderground v.1.15,2013-01-04 06:42:00,
2013-01-04 01:49:00,16.0,10.6,29.98,West,273,2.0,2.0,79,0.00,,,0.00,0,Wunderground v.1.15,2013-01-04 06:49:00,
2013-01-04 02:01:00,16.1,11.0,29.98,West,273,1.0,1.0,80,0.00,,,0.00,0,Wunderground v.1.15,2013-01-04 07:01:00,
2013-01-04 02:06:00,16.1,11.0,29.98,West,273,2.0,2.0,80,0.00,,,0.00,0,Wunderground v.1.15,2013-01-04 07:06:00,
2013-01-04 02:11:00,16.1,11.0,29.98,West,273,1.0,2.0,80,0.00,,,0.00,0,Wunderground v.1.15,2013-01-04 07:11:00,
2013-01-04 02:16:00,16.1,11.0,29.98,West,273,1.0,2.0,80,0.00,,,0.00,0,Wunderground v.1.15,2013-01-04 07:16:00,
2013-01-04 02:21:00,16.1,11.0,29.98,West,273,2.0,2.0,80,0.00,,,0.00,0,Wunderground v.1.15,2013-01-04 07:21:00,
2013-01-04 02:26:00,16.0,10.9,29.98,West,273,1.0,2.0,80,0.00,,,0.00,0,Wunderground v.1.15,2013-01-04 07:26:00,
2013-01-04 02:31:00,16.0,11.2,29.98,West,273,2.0,2.0,81,0.00,,,0.00,0,Wunderground v.1.15,2013-01-04 07:31:00,
2013-01-04 02:37:00,16.0,11.2,29.98,West,273,2.0,2.0,81,0.00,,,0.00,0,Wunderground v.1.15,2013-01-04 07:37:00,
2013-01-04 02:43:00,16.1,11.3,29.97,West,273,1.0,1.0,81,0.00,,,0.00,0,Wunderground v.1.15,2013-01-04 07:43:00,
2013-01-04 02:48:00,16.2,11.7,29.98,West,273,1.0,2.0,82,0.00,,,0.00,0,Wunderground v.1.15,2013-01-04 07:48:00,
2013-01-04 02:53:00,16.3,11.8,29.97,West,273,1.0,2.0,82,0.00,,,0.00,0,Wunderground v.1.15,2013-01-04 07:53:00,
2013-01-04 02:58:00,16.4,11.9,29.97,West,273,1.0,2.0,82,0.00,,,0.00,0,Wunderground v.1.15,2013-01-04 07:58:00,
2013-01-04 03:03:00,16.5,12.0,29.97,West,273,1.0,2.0,82,0.00,,,0.00,0,Wunderground v.1.15,2013-01-04 08:03:00,
2013-01-04 03:08:00,16.6,12.1,29.97,West,273,1.0,2.0,82,0.00,,,0.00,0,Wunderground v.1.15,2013-01-04 08:08:00,
2013-01-04 03:13:00,16.7,12.2,29.97,West,273,1.0,2.0,82,0.00,,,0.00,0,Wunderground v.1.15,2013-01-04 08:13:00,
2013-01-04 03:18:00,16.7,12.2,29.97,West,266,1.0,2.0,82,0.00,,,0.00,0,Wunderground v.1.15,2013-01-04 08:18:00,
2013-01-04 03:23:00,16.7,12.2,29.97,West,265,2.0,3.0,82,0.00,,,0.00,0,Wunderground v.1.15,2013-01-04 08:23:00,
2013-01-04 03:28:00,16.6,12.1,29.96,West,265,5.0,5.0,82,0.00,,,0.00,0,Wunderground v.1.15,2013-01-04 08:28:00,
2013-01-04 03:33:00,16.5,12.0,29.96,West,265,1.0,3.0,82,0.00,,,0.00,0,Wunderground v.1.15,2013-01-04 08:33:00,
2013-01-04 03:38:00,16.5,12.0,29.96,West,265,2.0,3.0,82,0.00,,,0.00,0,Wunderground v.1.15,2013-01-04 08:38:00,
2013-01-04 03:43:00,16.5,12.0,29.96,West,260,1.0,3.0,82,0.00,,,0.00,0,Wunderground v.1.15,2013-01-04 08:43:00,
2013-01-04 03:49:00,16.4,11.9,29.96,West,269,1.0,4.0,82,0.00,,,0.00,0,Wunderground v.1.15,2013-01-04 08:49:00,
2013-01-04 03:54:00,16.4,12.1,29.96,West,271,0.0,2.0,83,0.00,,,0.00,0,Wunderground v.1.15,2013-01-04 08:54:00,
2013-01-04 03:59:00,16.4,12.1,29.96,West,259,0.0,5.0,83,0.00,,,0.00,0,Wunderground v.1.15,2013-01-04 08:59:00,
2013-01-04 04:04:00,16.4,12.1,29.96,West,259,3.0,3.0,83,0.00,,,0.00,0,Wunderground v.1.15,2013-01-04 09:04:00,
2013-01-04 04:09:00,16.4,12.1,29.96,West,259,1.0,5.0,83,0.00,,,0.00,0,Wunderground v.1.15,2013-01-04 09:09:00,
2013-01-04 04:15:00,16.5,12.5,29.96,SW,221,1.0,6.0,84,0.00,,,0.00,0,Wunderground v.1.15,2013-01-04 09:15:00,
2013-01-04 04:20:00,16.7,12.7,29.96,West,266,1.0,2.0,84,0.00,,,0.00,0,Wunderground v.1.15,2013-01-04 09:20:00,
2013-01-04 04:25:00,17.0,13.3,29.96,West,262,2.0,4.0,85,0.00,,,0.00,0,Wunderground v.1.15,2013-01-04 09:25:00,
2013-01-04 04:30:00,17.2,13.5,29.96,West,264,2.0,2.0,85,0.00,,,0.00,0,Wunderground v.1.15,2013-01-04 09:30:00,
2013-01-04 04:35:00,17.5,14.0,29.96,West,264,1.0,2.0,86,0.00,,,0.00,0,Wunderground v.1.15,2013-01-04 09:35:00,
2013-01-04 04:41:00,17.6,13.9,29.96,West,264,1.0,2.0,85,0.00,,,0.00,0,Wunderground v.1.15,2013-01-04 09:41:00,
2013-01-04 04:46:00,17.6,13.9,29.96,SW,235,3.0,5.0,85,0.00,,,0.00,0,Wunderground v.1.15,2013-01-04 09:46:00,
2013-01-04 04:51:00,17.6,13.9,29.97,West,267,1.0,2.0,85,0.00,,,0.00,0,Wunderground v.1.15,2013-01-04 09:51:00,
2013-01-04 04:56:00,17.7,14.0,29.96,WSW,249,2.0,5.0,85,0.00,,,0.00,0,Wunderground v.1.15,2013-01-04 09:56:00,
2013-01-04 05:01:00,17.9,14.2,29.96,WSW,257,1.0,3.0,85,0.00,,,0.00,0,Wunderground v.1.15,2013-01-04 10:01:00,
2013-01-04 05:06:00,18.0,14.5,29.97,West,281,2.0,4.0,86,0.00,,,0.00,0,Wunderground v.1.15,2013-01-04 10:06:00,
2013-01-04 05:12:00,18.2,14.7,29.96,West,274,2.0,3.0,86,0.00,,,0.00,0,Wunderground v.1.15,2013-01-04 10:12:00,
2013-01-04 05:17:00,18.5,15.0,29.96,West,275,2.0,3.0,86,0.00,,,0.00,0,Wunderground v.1.15,2013-01-04 10:17:00,
2013-01-04 05:23:00,18.8,15.3,29.96,West,275,2.0,3.0,86,0.00,,,0.00,0,Wunderground v.1.15,2013-01-04 10:23:00,
2013-01-04 05:28:00,19.0,15.5,29.96,West,262,1.0,3.0,86,0.00,,,0.00,0,Wunderground v.1.15,2013-01-04 10:28:00,
2013-01-04 05:33:00,19.3,15.8,29.96,West,262,2.0,3.0,86,0.00,,,0.00,0,Wunderground v.1.15,2013-01-04 10:33:00,
2013-01-04 05:38:00,19.5,16.0,29.96,WNW,288,3.0,4.0,86,0.00,,,0.00,0,Wunderground v.1.15,2013-01-04 10:38:00,
2013-01-04 05:43:00,19.8,16.3,29.97,WSW,256,2.0,5.0,86,0.00,,,0.00,0,Wunderground v.1.15,2013-01-04 10:43:00,
2013-01-04 05:48:00,20.0,16.5,29.96,West,275,2.0,5.0,86,0.00,,,0.00,0,Wunderground v.1.15,2013-01-04 10:48:00,
2013-01-04 05:53:00,20.3,16.8,29.96,West,268,4.0,6.0,86,0.00,,,0.00,0,Wunderground v.1.15,2013-01-04 10:53:00,
2013-01-04 05:58:00,20.6,17.1,29.96,WSW,253,3.0,9.0,86,0.00,,,0.00,0,Wunderground v.1.15,2013-01-04 10:58:00,
2013-01-04 06:04:00,20.9,17.4,29.96,WNW,284,1.0,6.0,86,0.00,,,0.00,0,Wunderground v.1.15,2013-01-04 11:04:00,
2013-01-04 06:09:00,21.2,17.7,29.96,WSW,254,2.0,6.0,86,0.00,,,0.00,0,Wunderground v.1.15,2013-01-04 11:09:00,
2013-01-04 06:14:00,21.4,17.6,29.96,West,270,3.0,3.0,85,0.00,,,0.00,0,Wunderground v.1.15,2013-01-04 11:14:00,
2013-01-04 06:19:00,21.6,17.8,29.96,West,267,2.0,5.0,85,0.00,,,0.00,0,Wunderground v.1.15,2013-01-04 11:19:00,
2013-01-04 06:24:00,21.8,18.0,29.96,WSW,257,4.0,7.0,85,0.00,,,0.00,0,Wunderground v.1.15,2013-01-04 11:24:00,
2013-01-04 06:29:00,22.1,18.3,29.96,WSW,246,5.0,9.0,85,0.00,,,0.00,0,Wunderground v.1.15,2013-01-04 11:29:00,
2013-01-04 06:34:00,22.3,18.5,29.97,West,267,3.0,4.0,85,0.00,,,0.00,0,Wunderground v.1.15,2013-01-04 11:34:00,
2013-01-04 06:39:00,22.5,18.4,29.97,West,266,3.0,7.0,84,0.00,,,0.00,0,Wunderground v.1.15,2013-01-04 11:39:00,
2013-01-04 06:44:00,22.7,18.6,29.97,West,271,4.0,6.0,84,0.00,,,0.00,0,Wunderground v.1.15,2013-01-04 11:44:00,
2013-01-04 06:49:00,22.8,18.7,29.97,West,271,3.0,6.0,84,0.00,,,0.00,0,Wunderground v.1.15,2013-01-04 11:49:00,
2013-01-04 06:54:00,23.0,18.6,29.97,West,268,1.0,6.0,83,0.00,,,0.00,0,Wunderground v.1.15,2013-01-04 11:54:00,
2013-01-04 06:59:00,23.0,18.6,29.97,West,266,3.0,6.0,83,0.00,,,0.00,0,Wunderground v.1.15,2013-01-04 11:59:00,
2013-01-04 07:04:00,23.1,18.7,29.97,West,266,2.0,3.0,83,0.00,,,0.00,0,Wunderground v.1.15,2013-01-04 12:04:00,
2013-01-04 07:09:00,23.2,18.8,29.98,WSW,258,3.0,3.0,83,0.00,,,0.00,0,Wunderground v.1.15,2013-01-04 12:09:00,
2013-01-04 07:15:00,23.3,18.6,29.98,WSW,258,2.0,4.0,82,0.00,,,0.00,0,Wunderground v.1.15,2013-01-04 12:15:00,
2013-01-04 07:20:00,23.3,18.6,29.98,WSW,238,3.0,3.0,82,0.00,,,0.00,0,Wunderground v.1.15,2013-01-04 12:20:00,
2013-01-04 07:25:00,23.3,18.6,29.98,West,280,1.0,4.0,82,0.00,,,0.00,5,Wunderground v.1.15,2013-01-04 12:25:00,
2013-01-04 07:30:00,23.3,18.6,29.98,West,268,2.0,2.0,82,0.00,,,0.00,7,Wunderground v.1.15,2013-01-04 12:30:00,
2013-01-04 07:35:00,23.3,18.6,29.98,West,266,1.0,4.0,82,0.00,,,0.00,12,Wunderground v.1.15,2013-01-04 12:35:00,
2013-01-04 07:40:00,23.4,18.7,29.98,West,266,2.0,2.0,82,0.00,,,0.00,19,Wunderground v.1.15,2013-01-04 12:40:00,
2013-01-04 07:45:00,23.5,18.8,29.98,SW,217,1.0,5.0,82,0.00,,,0.00,28,Wunderground v.1.15,2013-01-04 12:45:00,
2013-01-04 07:50:00,23.5,18.8,29.98,SW,232,2.0,3.0,82,0.00,,,0.00,39,Wunderground v.1.15,2013-01-04 12:50:00,
2013-01-04 07:55:00,23.6,18.9,29.99,West,259,2.0,4.0,82,0.00,,,0.00,42,Wunderground v.1.15,2013-01-04 12:55:00,
2013-01-04 08:00:00,23.8,19.1,29.99,West,267,2.0,5.0,82,0.00,,,0.00,54,Wunderground v.1.15,2013-01-04 13:00:00,
2013-01-04 08:05:00,24.1,19.7,29.99,WSW,241,1.0,9.0,83,0.00,,,0.00,79,Wunderground v.1.15,2013-01-04 13:05:00,
2013-01-04 08:10:00,24.5,20.1,29.99,WSW,242,1.0,3.0,83,0.00,,,0.00,88,Wunderground v.1.15,2013-01-04 13:10:00,
2013-01-04 08:15:00,24.9,20.5,29.99,WSW,254,3.0,7.0,83,0.00,,,0.00,97,Wunderground v.1.15,2013-01-04 13:15:00,
2013-01-04 08:21:00,25.4,21.0,29.99,WSW,240,1.0,3.0,83,0.00,,,0.00,81,Wunderground v.1.15,2013-01-04 13:21:00,
2013-01-04 08:26:00,26.0,21.3,29.99,West,271,4.0,5.0,82,0.00,,,0.00,90,Wunderground v.1.15,2013-01-04 13:26:00,
2013-01-04 08:31:00,26.6,21.8,29.99,West,275,5.0,7.0,82,0.00,,,0.00,76,Wunderground v.1.15,2013-01-04 13:31:00,
2013-01-04 08:36:00,27.2,22.1,29.98,West,274,1.0,9.0,81,0.00,,,0.00,72,Wunderground v.1.15,2013-01-04 13:36:00,
2013-01-04 08:41:00,27.7,22.3,29.98,WSW,250,1.0,4.0,80,0.00,,,0.00,79,Wunderground v.1.15,2013-01-04 13:41:00,
2013-01-04 08:46:00,28.1,22.4,29.98,West,265,2.0,9.0,79,0.00,,,0.00,163,Wunderground v.1.15,2013-01-04 13:46:00,
2013-01-04 08:51:00,28.6,22.9,29.98,SW,227,3.0,7.0,79,0.00,,,0.00,193,Wunderground v.1.15,2013-01-04 13:51:00,
2013-01-04 08:56:00,29.4,23.4,29.98,West,264,2.0,11.0,78,0.00,,,0.00,186,Wunderground v.1.15,2013-01-04 13:56:00,
2013-01-04 09:01:00,30.1,24.1,29.98,WSW,240,6.0,12.0,78,0.00,,,0.00,179,Wunderground v.1.15,2013-01-04 14:01:00,
2013-01-04 09:06:00,31.1,24.1,29.97,WNW,290,5.0,12.0,75,0.00,,,0.00,155,Wunderground v.1.15,2013-01-04 14:06:00,
2013-01-04 09:11:00,31.9,24.2,29.97,WSW,252,4.0,6.0,73,0.00,,,0.00,125,Wunderground v.1.15,2013-01-04 14:11:00,
2013-01-04 09:17:00,32.6,24.2,29.97,WSW,255,7.0,10.0,71,0.00,,,0.00,142,Wunderground v.1.15,2013-01-04 14:17:00,
2013-01-04 09:22:00,33.0,24.6,29.97,West,269,4.0,5.0,71,0.00,,,0.00,86,Wunderground v.1.15,2013-01-04 14:22:00,
2013-01-04 09:27:00,33.2,24.5,29.97,West,261,2.0,11.0,70,0.00,,,0.00,88,Wunderground v.1.15,2013-01-04 14:27:00,
2013-01-04 09:32:00,33.2,24.1,29.97,West,272,4.0,6.0,69,0.00,,,0.00,86,Wunderground v.1.15,2013-01-04 14:32:00,
2013-01-04 09:37:00,33.1,23.7,29.97,West,278,2.0,7.0,68,0.00,,,0.00,88,Wunderground v.1.15,2013-01-04 14:37:00,
2013-01-04 09:43:00,33.0,23.6,29.97,WSW,246,2.0,3.0,68,0.00,,,0.00,107,Wunderground v.1.15,2013-01-04 14:43:00,
2013-01-04 09:48:00,33.0,23.9,29.98,West,277,0.0,9.0,69,0.00,,,0.00,135,Wunderground v.1.15,2013-01-04 14:48:00,
2013-01-04 09:53:00,33.0,23.9,29.98,SSW,192,10.0,10.0,69,0.00,,,0.00,151,Wunderground v.1.15,2013-01-04 14:53:00,
2013-01-04 09:58:00,33.2,23.8,29.97,SW,226,3.0,10.0,68,0.00,,,0.00,156,Wunderground v.1.15,2013-01-04 14:58:00,
2013-01-04 10:03:00,33.3,23.9,29.97,WSW,253,5.0,5.0,68,0.00,,,0.00,185,Wunderground v.1.15,2013-01-04 15:03:00,
2013-01-04 10:08:00,33.7,23.9,29.97,WSW,256,3.0,10.0,67,0.00,,,0.00,243,Wunderground v.1.15,2013-01-04 15:08:00,
2013-01-04 10:13:00,34.3,24.5,29.96,WNW,298,4.0,6.0,67,0.00,,,0.00,304,Wunderground v.1.15,2013-01-04 15:13:00,
2013-01-04 10:18:00,35.0,24.8,29.96,West,263,4.0,6.0,66,0.00,,,0.00,283,Wunderground v.1.15,2013-01-04 15:18:00,
2013-01-04 10:23:00,35.8,25.5,29.96,West,268,2.0,7.0,66,0.00,,,0.00,345,Wunderground v.1.15,2013-01-04 15:23:00,
2013-01-04 10:29:00,36.8,25.4,29.95,West,267,5.0,9.0,63,0.00,,,0.00,404,Wunderground v.1.15,2013-01-04 15:29:00,
2013-01-04 10:34:00,37.4,25.6,29.95,WSW,258,6.0,12.0,62,0.00,,,0.00,248,Wunderground v.1.15,2013-01-04 15:34:00,
2013-01-04 10:39:00,37.7,25.5,29.95,WNW,298,2.0,12.0,61,0.00,,,0.00,181,Wunderground v.1.15,2013-01-04 15:39:00,
2013-01-04 10:44:00,37.7,25.1,29.94,West,279,6.0,9.0,60,0.00,,,0.00,163,Wunderground v.1.15,2013-01-04 15:44:00,
2013-01-04 10:49:00,37.7,25.1,29.94,West,268,5.0,11.0,60,0.00,,,0.00,163,Wunderground v.1.15,2013-01-04 15:49:00,
2013-01-04 10:54:00,37.4,24.8,29.93,WSW,258,10.0,13.0,60,0.00,,,0.00,165,Wunderground v.1.15,2013-01-04 15:54:00,
2013-01-04 10:59:00,37.2,24.6,29.93,West,261,5.0,13.0,60,0.00,,,0.00,160,Wunderground v.1.15,2013-01-04 15:59:00,
2013-01-04 11:04:00,37.1,24.5,29.92,West,267,3.0,14.0,60,0.00,,,0.00,125,Wunderground v.1.15,2013-01-04 16:04:00,
2013-01-04 11:09:00,37.0,24.4,29.92,West,280,5.0,15.0,60,0.00,,,0.00,139,Wunderground v.1.15,2013-01-04 16:09:00,
2013-01-04 11:14:00,36.9,24.7,29.92,West,265,5.0,11.0,61,0.00,,,0.00,206,Wunderground v.1.15,2013-01-04 16:14:00,
2013-01-04 11:19:00,36.9,24.3,29.91,West,266,4.0,19.0,60,0.00,,,0.00,116,Wunderground v.1.15,2013-01-04 16:19:00,
2013-01-04 11:24:00,36.8,24.2,29.92,West,273,11.0,14.0,60,0.00,,,0.00,83,Wunderground v.1.15,2013-01-04 16:24:00,
2013-01-04 11:29:00,36.5,23.9,29.91,SSW,205,7.0,14.0,60,0.00,,,0.00,86,Wunderground v.1.15,2013-01-04 16:29:00,
2013-01-04 11:34:00,36.4,24.2,29.91,WSW,246,6.0,17.0,61,0.00,,,0.00,160,Wunderground v.1.15,2013-01-04 16:34:00,
2013-01-04 11:40:00,36.5,24.3,29.90,SW,236,2.0,2.0,61,0.00,,,0.00,69,Wunderground v.1.15,2013-01-04 16:40:00,
2013-01-04 11:45:00,36.6,24.8,29.90,WSW,257,1.0,16.0,62,0.00,,,0.00,153,Wunderground v.1.15,2013-01-04 16:45:00,
2013-01-04 11:50:00,36.8,25.0,29.89,SW,229,9.0,9.0,62,0.00,,,0.00,111,Wunderground v.1.15,2013-01-04 16:50:00,
2013-01-04 11:55:00,36.9,24.7,29.89,West,261,5.0,16.0,61,0.00,,,0.00,125,Wunderground v.1.15,2013-01-04 16:55:00,
2013-01-04 12:00:00,37.0,25.2,29.89,West,263,1.0,5.0,62,0.00,,,0.00,176,Wunderground v.1.15,2013-01-04 17:00:00,
2013-01-04 12:05:00,37.3,25.1,29.88,West,271,2.0,9.0,61,0.00,,,0.00,135,Wunderground v.1.15,2013-01-04 17:05:00,
2013-01-04 12:10:00,37.5,25.7,29.87,WSW,247,13.0,13.0,62,0.00,,,0.00,144,Wunderground v.1.15,2013-01-04 17:10:00,
2013-01-04 12:16:00,37.6,25.4,29.88,WSW,242,6.0,13.0,61,0.00,,,0.00,292,Wunderground v.1.15,2013-01-04 17:16:00,
2013-01-04 12:21:00,37.8,25.1,29.87,WSW,257,14.0,15.0,60,0.00,,,0.00,200,Wunderground v.1.15,2013-01-04 17:21:00,
2013-01-04 12:26:00,37.9,25.2,29.87,West,259,12.0,16.0,60,0.00,,,0.00,135,Wunderground v.1.15,2013-01-04 17:26:00,
2013-01-04 12:31:00,37.8,24.7,29.86,SW,225,3.0,10.0,59,0.00,,,0.00,58,Wunderground v.1.15,2013-01-04 17:31:00,
2013-01-04 12:36:00,37.6,24.6,29.86,SW,220,6.0,12.0,59,0.00,,,0.00,77,Wunderground v.1.15,2013-01-04 17:36:00,
2013-01-04 12:41:00,37.4,24.8,29.86,WSW,242,2.0,11.0,60,0.00,,,0.00,83,Wunderground v.1.15,2013-01-04 17:41:00,
2013-01-04 12:46:00,37.3,24.7,29.85,SW,223,2.0,12.0,60,0.00,,,0.00,76,Wunderground v.1.15,2013-01-04 17:46:00,
2013-01-04 12:52:00,37.3,25.1,29.85,WSW,257,3.0,18.0,61,0.00,,,0.00,74,Wunderground v.1.15,2013-01-04 17:52:00,
2013-01-04 12:57:00,37.2,24.6,29.84,WSW,254,3.0,18.0,60,0.00,,,0.00,142,Wunderground v.1.15,2013-01-04 17:57:00,
2013-01-04 13:02:00,37.3,25.1,29.83,NNW,336,2.0,9.0,61,0.00,,,0.00,91,Wunderground v.1.15,2013-01-04 18:02:00,
2013-01-04 13:07:00,37.4,25.2,29.83,West,262,10.0,15.0,61,0.00,,,0.00,69,Wunderground v.1.15,2013-01-04 18:07:00,
2013-01-04 13:13:00,37.4,24.8,29.83,West,267,3.0,11.0,60,0.00,,,0.00,158,Wunderground v.1.15,2013-01-04 18:13:00,
2013-01-04 13:18:00,37.5,25.3,29.83,West,272,2.0,11.0,61,0.00,,,0.00,155,Wunderground v.1.15,2013-01-04 18:18:00,
2013-01-04 13:23:00,37.7,25.8,29.83,SW,226,5.0,10.0,62,0.00,,,0.00,190,Wunderground v.1.15,2013-01-04 18:23:00,
2013-01-04 13:28:00,37.9,26.0,29.83,WSW,246,5.0,10.0,62,0.00,,,0.00,105,Wunderground v.1.15,2013-01-04 18:28:00,
2013-01-04 13:33:00,38.1,26.2,29.84,West,273,5.0,13.0,62,0.00,,,0.00,128,Wunderground v.1.15,2013-01-04 18:33:00,
2013-01-04 13:38:00,38.2,26.3,29.84,West,268,10.0,14.0,62,0.00,,,0.00,111,Wunderground v.1.15,2013-01-04 18:38:00,
2013-01-04 13:43:00,38.2,26.3,29.84,West,265,3.0,6.0,62,0.00,,,0.00,91,Wunderground v.1.15,2013-01-04 18:43:00,
2013-01-04 13:48:00,38.2,25.9,29.84,WSW,257,3.0,12.0,61,0.00,,,0.00,79,Wunderground v.1.15,2013-01-04 18:48:00,
2013-01-04 13:53:00,38.2,25.9,29.84,SW,222,12.0,12.0,61,0.00,,,0.00,76,Wunderground v.1.15,2013-01-04 18:53:00,
2013-01-04 13:58:00,38.1,25.8,29.84,WSW,252,6.0,12.0,61,0.00,,,0.00,67,Wunderground v.1.15,2013-01-04 18:58:00,
2013-01-04 14:03:00,37.9,26.0,29.83,WSW,238,3.0,12.0,62,0.00,,,0.00,65,Wunderground v.1.15,2013-01-04 19:03:00,
2013-01-04 14:08:00,37.8,25.9,29.83,West,261,2.0,12.0,62,0.00,,,0.00,54,Wunderground v.1.15,2013-01-04 19:08:00,
2013-01-04 14:13:00,37.6,25.7,29.83,SW,225,5.0,9.0,62,0.00,,,0.00,51,Wunderground v.1.15,2013-01-04 19:13:00,
2013-01-04 14:18:00,37.4,25.9,29.83,SW,234,4.0,10.0,63,0.00,,,0.00,56,Wunderground v.1.15,2013-01-04 19:18:00,
2013-01-04 14:23:00,37.2,25.8,29.83,West,263,3.0,9.0,63,0.00,,,0.00,67,Wunderground v.1.15,2013-01-04 19:23:00,
2013-01-04 14:28:00,37.1,25.7,29.83,WSW,246,2.0,10.0,63,0.00,,,0.00,65,Wunderground v.1.15,2013-01-04 19:28:00,
2013-01-04 14:33:00,37.0,25.9,29.83,SW,224,4.0,12.0,64,0.00,,,0.00,67,Wunderground v.1.15,2013-01-04 19:33:00,
2013-01-04 14:38:00,36.9,25.9,29.83,WSW,243,3.0,12.0,64,0.00,,,0.00,62,Wunderground v.1.15,2013-01-04 19:38:00,
2013-01-04 14:43:00,36.8,26.1,29.83,West,276,2.0,6.0,65,0.00,,,0.00,60,Wunderground v.1.15,2013-01-04 19:43:00,
2013-01-04 14:48:00,36.7,26.0,29.83,West,259,6.0,6.0,65,0.00,,,0.00,53,Wunderground v.1.15,2013-01-04 19:48:00,
2013-01-04 14:53:00,36.6,26.3,29.84,West,260,5.0,12.0,66,0.00,,,0.00,54,Wunderground v.1.15,2013-01-04 19:53:00,
2013-01-04 14:58:00,36.6,25.9,29.84,WNW,296,3.0,12.0,65,0.00,,,0.00,46,Wunderground v.1.15,2013-01-04 19:58:00,
2013-01-04 15:04:00,36.5,26.2,29.84,West,274,5.0,11.0,66,0.00,,,0.00,46,Wunderground v.1.15,2013-01-04 20:04:00,
2013-01-04 15:09:00,36.4,26.1,29.84,WNW,284,3.0,11.0,66,0.00,,,0.00,47,Wunderground v.1.15,2013-01-04 20:09:00,
2013-01-04 15:14:00,36.3,26.0,29.84,West,271,1.0,13.0,66,0.00,,,0.00,35,Wunderground v.1.15,2013-01-04 20:14:00,
2013-01-04 15:19:00,36.2,25.9,29.84,West,263,2.0,13.0,66,0.00,,,0.00,32,Wunderground v.1.15,2013-01-04 20:19:00,
2013-01-04 15:24:00,36.1,26.2,29.84,SSW,207,0.0,9.0,67,0.00,,,0.00,26,Wunderground v.1.15,2013-01-04 20:24:00,
2013-01-04 15:29:00,36.0,26.1,29.84,SW,235,3.0,9.0,67,0.00,,,0.00,23,Wunderground v.1.15,2013-01-04 20:29:00,
2013-01-04 15:34:00,35.9,26.0,29.84,SW,225,2.0,9.0,67,0.00,,,0.00,21,Wunderground v.1.15,2013-01-04 20:34:00,
2013-01-04 15:39:00,35.7,25.8,29.84,West,279,2.0,9.0,67,0.00,,,0.00,18,Wunderground v.1.15,2013-01-04 20:39:00,
2013-01-04 15:44:00,35.6,25.7,29.84,WSW,254,4.0,8.0,67,0.00,,,0.00,16,Wunderground v.1.15,2013-01-04 20:44:00,
2013-01-04 15:49:00,35.5,26.0,29.84,SW,220,2.0,8.0,68,0.00,,,0.00,14,Wunderground v.1.15,2013-01-04 20:49:00,
2013-01-04 15:54:00,35.5,26.0,29.84,West,270,3.0,5.0,68,0.00,,,0.00,12,Wunderground v.1.15,2013-01-04 20:54:00,
2013-01-04 15:59:00,35.4,25.9,29.84,SW,222,1.0,5.0,68,0.00,,,0.00,11,Wunderground v.1.15,2013-01-04 20:59:00,
2013-01-04 16:04:00,35.3,25.8,29.84,West,266,0.0,3.0,68,0.00,,,0.00,9,Wunderground v.1.15,2013-01-04 21:04:00,
2013-01-04 16:09:00,35.2,25.3,29.84,West,260,1.0,7.0,67,0.00,,,0.00,7,Wunderground v.1.15,2013-01-04 21:09:00,
2013-01-04 16:14:00,35.1,25.6,29.84,WNW,285,2.0,6.0,68,0.00,,,0.00,5,Wunderground v.1.15,2013-01-04 21:14:00,
2013-01-04 16:19:00,35.0,25.5,29.84,WSW,240,1.0,6.0,68,0.00,,,0.00,5,Wunderground v.1.15,2013-01-04 21:19:00,
2013-01-04 16:24:00,35.0,25.5,29.84,WSW,250,1.0,3.0,68,0.00,,,0.00,0,Wunderground v.1.15,2013-01-04 21:24:00,
2013-01-04 16:29:00,34.9,25.4,29.84,WSW,252,3.0,3.0,68,0.00,,,0.00,0,Wunderground v.1.15,2013-01-04 21:29:00,
2013-01-04 16:34:00,34.9,25.4,29.84,WSW,252,1.0,3.0,68,0.00,,,0.00,0,Wunderground v.1.15,2013-01-04 21:34:00,
2013-01-04 16:40:00,34.8,25.7,29.84,WSW,252,1.0,3.0,69,0.00,,,0.00,0,Wunderground v.1.15,2013-01-04 21:40:00,
2013-01-04 16:45:00,34.7,25.6,29.84,West,262,2.0,3.0,69,0.00,,,0.00,0,Wunderground v.1.15,2013-01-04 21:45:00,
2013-01-04 16:50:00,34.6,25.5,29.84,WNW,283,3.0,6.0,69,0.00,,,0.00,0,Wunderground v.1.15,2013-01-04 21:50:00,
2013-01-04 16:54:00,34.4,25.3,29.84,West,269,3.0,7.0,69,0.00,,,0.00,0,Wunderground v.1.15,2013-01-04 21:54:00,
2013-01-04 17:00:00,34.3,25.2,29.84,WSW,242,3.0,3.0,69,0.00,,,0.00,0,Wunderground v.1.15,2013-01-04 22:00:00,
2013-01-04 17:05:00,34.2,25.1,29.84,SW,224,2.0,4.0,69,0.00,,,0.00,0,Wunderground v.1.15,2013-01-04 22:05:00,
2013-01-04 17:10:00,34.1,25.0,29.84,WSW,247,1.0,1.0,69,0.00,,,0.00,0,Wunderground v.1.15,2013-01-04 22:10:00,
2013-01-04 17:15:00,34.1,25.0,29.84,WSW,251,3.0,7.0,69,0.00,,,0.00,0,Wunderground v.1.15,2013-01-04 22:15:00,
2013-01-04 17:21:00,34.0,24.9,29.84,WSW,238,3.0,3.0,69,0.00,,,0.00,0,Wunderground v.1.15,2013-01-04 22:21:00,
2013-01-04 17:26:00,34.0,24.9,29.84,West,271,1.0,5.0,69,0.00,,,0.00,0,Wunderground v.1.15,2013-01-04 22:26:00,
2013-01-04 17:31:00,34.0,24.9,29.84,SW,226,2.0,3.0,69,0.00,,,0.00,0,Wunderground v.1.15,2013-01-04 22:31:00,
2013-01-04 17:36:00,33.9,24.8,29.84,WSW,252,1.0,5.0,69,0.00,,,0.00,0,Wunderground v.1.15,2013-01-04 22:36:00,
2013-01-04 17:41:00,33.9,24.8,29.84,West,263,0.0,3.0,69,0.00,,,0.00,0,Wunderground v.1.15,2013-01-04 22:41:00,
2013-01-04 17:47:00,33.9,24.8,29.84,West,263,2.0,3.0,69,0.00,,,0.00,0,Wunderground v.1.15,2013-01-04 22:47:00,
2013-01-04 17:52:00,33.9,25.1,29.84,West,271,3.0,3.0,70,0.00,,,0.00,0,Wunderground v.1.15,2013-01-04 22:52:00,
2013-01-04 17:58:00,33.9,24.8,29.84,West,270,0.0,6.0,69,0.00,,,0.00,0,Wunderground v.1.15,2013-01-04 22:58:00,
2013-01-04 18:03:00,33.9,24.8,29.85,WSW,242,0.0,3.0,69,0.00,,,0.00,0,Wunderground v.1.15,2013-01-04 23:03:00,
2013-01-04 18:08:00,33.8,25.0,29.85,SW,225,1.0,6.0,70,0.00,,,0.00,0,Wunderground v.1.15,2013-01-04 23:08:00,
2013-01-04 18:13:00,33.8,25.0,29.85,WSW,252,3.0,5.0,70,0.00,,,0.00,0,Wunderground v.1.15,2013-01-04 23:13:00,
2013-01-04 18:18:00,33.8,25.0,29.85,West,261,1.0,5.0,70,0.00,,,0.00,0,Wunderground v.1.15,2013-01-04 23:18:00,
2013-01-04 18:24:00,33.7,25.3,29.85,SW,231,3.0,3.0,71,0.00,,,0.00,0,Wunderground v.1.15,2013-01-04 23:24:00,
2013-01-04 18:29:00,33.6,24.9,29.85,SW,227,0.0,6.0,70,0.00,,,0.00,0,Wunderground v.1.15,2013-01-04 23:29:00,
2013-01-04 18:34:00,33.5,24.8,29.85,SW,223,2.0,2.0,70,0.00,,,0.00,0,Wunderground v.1.15,2013-01-04 23:34:00,
2013-01-04 18:39:00,33.4,25.0,29.86,West,261,3.0,5.0,71,0.00,,,0.00,0,Wunderground v.1.15,2013-01-04 23:39:00,
2013-01-04 18:44:00,33.4,25.0,29.86,WSW,240,1.0,6.0,71,0.00,,,0.00,0,Wunderground v.1.15,2013-01-04 23:44:00,
2013-01-04 18:50:00,33.2,24.8,29.86,WSW,240,2.0,6.0,71,0.00,,,0.00,0,Wunderground v.1.15,2013-01-04 23:50:00,
2013-01-04 18:55:00,33.2,24.5,29.86,SW,220,0.0,4.0,70,0.00,,,0.00,0,Wunderground v.1.15,2013-01-04 23:55:00,
2013-01-04 19:00:00,33.0,24.3,29.86,SW,229,0.0,4.0,70,0.00,,,0.00,0,Wunderground v.1.15,2013-01-05 00:00:00,
2013-01-04 19:05:00,32.9,24.2,29.86,SW,221,2.0,4.0,70,0.00,,,0.00,0,Wunderground v.1.15,2013-01-05 00:05:00,
2013-01-04 19:10:00,32.6,23.9,29.86,SW,219,2.0,3.0,70,0.00,,,0.00,0,Wunderground v.1.15,2013-01-05 00:10:00,
2013-01-04 19:15:00,32.5,23.8,29.86,SW,216,2.0,3.0,70,0.00,,,0.00,0,Wunderground v.1.15,2013-01-05 00:15:00,
2013-01-04 19:20:00,32.2,23.8,29.86,SW,227,1.0,2.0,71,0.00,,,0.00,0,Wunderground v.1.15,2013-01-05 00:20:00,
2013-01-04 19:25:00,32.0,23.7,29.86,SW,227,0.0,3.0,71,0.00,,,0.00,0,Wunderground v.1.15,2013-01-05 00:25:00,
2013-01-04 19:30:00,31.8,23.5,29.86,SW,227,2.0,2.0,71,0.00,,,0.00,0,Wunderground v.1.15,2013-01-05 00:30:00,
2013-01-04 19:36:00,31.5,23.2,29.86,WSW,249,1.0,4.0,71,0.00,,,0.00,0,Wunderground v.1.15,2013-01-05 00:36:00,
2013-01-04 19:41:00,31.3,23.3,29.86,SW,236,1.0,2.0,72,0.00,,,0.00,0,Wunderground v.1.15,2013-01-05 00:41:00,
2013-01-04 19:46:00,31.1,23.1,29.86,WSW,240,1.0,4.0,72,0.00,,,0.00,0,Wunderground v.1.15,2013-01-05 00:46:00,
2013-01-04 19:51:00,30.9,22.9,29.86,SW,225,0.0,2.0,72,0.00,,,0.00,0,Wunderground v.1.15,2013-01-05 00:51:00,
2013-01-04 19:57:00,30.7,22.7,29.86,SW,222,0.0,4.0,72,0.00,,,0.00,0,Wunderground v.1.15,2013-01-05 00:57:00,
2013-01-04 20:02:00,30.6,23.0,29.86,SW,234,4.0,4.0,73,0.00,,,0.00,0,Wunderground v.1.15,2013-01-05 01:02:00,
2013-01-04 20:08:00,30.4,22.8,29.85,SW,234,1.0,4.0,73,0.00,,,0.00,0,Wunderground v.1.15,2013-01-05 01:08:00,
2013-01-04 20:13:00,30.2,22.6,29.86,SW,234,1.0,2.0,73,0.00,,,0.00,0,Wunderground v.1.15,2013-01-05 01:13:00,
2013-01-04 20:18:00,30.1,22.5,29.86,WSW,244,2.0,6.0,73,0.00,,,0.00,0,Wunderground v.1.15,2013-01-05 01:18:00,
2013-01-04 20:23:00,30.0,22.7,29.86,WSW,247,2.0,3.0,74,0.00,,,0.00,0,Wunderground v.1.15,2013-01-05 01:23:00,
2013-01-04 20:28:00,29.8,22.5,29.86,WSW,246,2.0,3.0,74,0.00,,,0.00,0,Wunderground v.1.15,2013-01-05 01:28:00,
2013-01-04 20:33:00,29.7,22.4,29.86,WSW,246,1.0,2.0,74,0.00,,,0.00,0,Wunderground v.1.15,2013-01-05 01:33:00,
2013-01-04 20:38:00,29.6,22.3,29.86,SW,236,0.0,3.0,74,0.00,,,0.00,0,Wunderground v.1.15,2013-01-05 01:38:00,
2013-01-04 20:43:00,29.5,22.6,29.86,SW,236,1.0,4.0,75,0.00,,,0.00,0,Wunderground v.1.15,2013-01-05 01:43:00,
2013-01-04 20:48:00,29.3,22.4,29.86,SW,236,0.0,4.0,75,0.00,,,0.00,0,Wunderground v.1.15,2013-01-05 01:48:00,
2013-01-04 20:53:00,29.2,21.9,29.86,SW,235,0.0,1.0,74,0.00,,,0.00,0,Wunderground v.1.15,2013-01-05 01:53:00,
2013-01-04 20:58:00,29.1,22.2,29.86,SW,235,2.0,2.0,75,0.00,,,0.00,0,Wunderground v.1.15,2013-01-05 01:58:00,
2013-01-04 21:03:00,28.8,21.9,29.86,SW,235,0.0,1.0,75,0.00,,,0.00,0,Wunderground v.1.15,2013-01-05 02:03:00,
2013-01-04 21:08:00,28.6,22.0,29.86,SW,235,0.0,1.0,76,0.00,,,0.00,0,Wunderground v.1.15,2013-01-05 02:08:00,
2013-01-04 21:13:00,28.5,21.9,29.86,SW,235,0.0,0.0,76,0.00,,,0.00,0,Wunderground v.1.15,2013-01-05 02:13:00,
2013-01-04 21:19:00,28.4,21.8,29.87,SW,235,0.0,2.0,76,0.00,,,0.00,0,Wunderground v.1.15,2013-01-05 02:19:00,
2013-01-04 21:24:00,28.3,21.7,29.86,SW,236,0.0,2.0,76,0.00,,,0.00,0,Wunderground v.1.15,2013-01-05 02:24:00,
2013-01-04 21:29:00,28.2,21.6,29.87,SW,236,0.0,2.0,76,0.00,,,0.00,0,Wunderground v.1.15,2013-01-05 02:29:00,
2013-01-04 21:34:00,28.1,21.5,29.87,SW,236,0.0,0.0,76,0.00,,,0.00,0,Wunderground v.1.15,2013-01-05 02:34:00,
2013-01-04 21:39:00,28.0,21.4,29.87,SW,236,0.0,1.0,76,0.00,,,0.00,0,Wunderground v.1.15,2013-01-05 02:39:00,
2013-01-04 21:44:00,27.9,21.3,29.87,SW,236,1.0,1.0,76,0.00,,,0.00,0,Wunderground v.1.15,2013-01-05 02:44:00,
2013-01-04 21:49:00,27.8,21.2,29.87,SW,236,2.0,2.0,76,0.00,,,0.00,0,Wunderground v.1.15,2013-01-05 02:49:00,
2013-01-04 21:54:00,27.8,21.2,29.87,SW,236,2.0,2.0,76,0.00,,,0.00,0,Wunderground v.1.15,2013-01-05 02:54:00,
2013-01-04 22:00:00,27.7,21.4,29.87,SW,236,1.0,2.0,77,0.00,,,0.00,0,Wunderground v.1.15,2013-01-05 03:00:00,
2013-01-04 22:05:00,27.7,21.4,29.87,WSW,254,1.0,5.0,77,0.00,,,0.00,0,Wunderground v.1.15,2013-01-05 03:05:00,
2013-01-04 22:10:00,27.7,21.4,29.86,SW,220,1.0,1.0,77,0.00,,,0.00,0,Wunderground v.1.15,2013-01-05 03:10:00,
2013-01-04 22:15:00,27.7,21.4,29.87,SW,218,2.0,3.0,77,0.00,,,0.00,0,Wunderground v.1.15,2013-01-05 03:15:00,
2013-01-04 22:20:00,27.7,21.4,29.87,SW,233,1.0,2.0,77,0.00,,,0.00,0,Wunderground v.1.15,2013-01-05 03:20:00,
2013-01-04 22:25:00,27.6,21.3,29.87,WSW,244,2.0,3.0,77,0.00,,,0.00,0,Wunderground v.1.15,2013-01-05 03:25:00,
2013-01-04 22:30:00,27.7,21.4,29.87,WSW,244,2.0,2.0,77,0.00,,,0.00,0,Wunderground v.1.15,2013-01-05 03:30:00,
2013-01-04 22:35:00,27.7,21.4,29.87,WSW,244,2.0,4.0,77,0.00,,,0.00,0,Wunderground v.1.15,2013-01-05 03:35:00,
2013-01-04 22:41:00,27.6,21.3,29.87,WSW,251,1.0,3.0,77,0.00,,,0.00,0,Wunderground v.1.15,2013-01-05 03:41:00,
2013-01-04 22:46:00,27.7,21.4,29.87,WSW,247,2.0,4.0,77,0.00,,,0.00,0,Wunderground v.1.15,2013-01-05 03:46:00,
2013-01-04 22:51:00,27.7,21.4,29.87,WSW,238,2.0,4.0,77,0.00,,,0.00,0,Wunderground v.1.15,2013-01-05 03:51:00,
2013-01-04 22:56:00,27.8,21.5,29.87,WSW,238,1.0,4.0,77,0.00,,,0.00,0,Wunderground v.1.15,2013-01-05 03:56:00,
2013-01-04 23:01:00,27.8,21.5,29.87,WSW,252,3.0,4.0,77,0.00,,,0.00,0,Wunderground v.1.15,2013-01-05 04:01:00,
2013-01-04 23:06:00,27.8,21.5,29.87,WSW,252,2.0,4.0,77,0.00,,,0.00,0,Wunderground v.1.15,2013-01-05 04:06:00,
2013-01-04 23:11:00,27.9,21.6,29.87,West,261,1.0,4.0,77,0.00,,,0.00,0,Wunderground v.1.15,2013-01-05 04:11:00,
2013-01-04 23:16:00,27.9,21.6,29.87,SW,234,1.0,4.0,77,0.00,,,0.00,0,Wunderground v.1.15,2013-01-05 04:16:00,
2013-01-04 23:22:00,28.0,21.7,29.87,SW,233,3.0,3.0,77,0.00,,,0.00,0,Wunderground v.1.15,2013-01-05 04:22:00,
2013-01-04 23:28:00,28.0,21.7,29.87,West,271,5.0,5.0,77,0.00,,,0.00,0,Wunderground v.1.15,2013-01-05 04:28:00,
2013-01-04 23:33:00,28.0,21.4,29.86,WSW,254,4.0,4.0,76,0.00,,,0.00,0,Wunderground v.1.15,2013-01-05 04:33:00,
2013-01-04 23:38:00,28.1,21.5,29.87,WSW,254,2.0,4.0,76,0.00,,,0.00,0,Wunderground v.1.15,2013-01-05 04:38:00,
2013-01-04 23:44:00,28.1,21.5,29.87,WSW,240,2.0,5.0,76,0.00,,,0.00,0,Wunderground v.1.15,2013-01-05 04:44:00,
2013-01-04 23:49:00,28.0,21.4,29.87,WSW,238,3.0,5.0,76,0.00,,,0.00,0,Wunderground v.1.15,2013-01-05 04:49:00,
2013-01-04 23:54:00,28.0,21.4,29.87,WSW,238,3.0,3.0,76,0.00,,,0.00,0,Wunderground v.1.15,2013-01-05 04:54:00,
2013-01-04 23:59:00,28.0,21.4,29.87,WSW,246,1.0,3.0,76,0.00,,,0.00,0,Wunderground v.1.15,2013-01-05 04:59:00,